Time;durP1;ratioP1;P1;durP2;ratioP2;P2;SDS_P1;SDS_P2;PMS_P1;PMS_P2;Temp;Humidity;BMP_temperature;BMP_pressure;BME280_temperature;BME280_humidity;BME280_pressure;Samples;Min_cycle;Max_cycle;Signal;HPM_P1;HPM_P2
2023/08/30 00:00:15;;;;;;;4.73;4.20;;;;;;;16.75;82.36;98517.84;7297235;39;20256;31
2023/08/30 00:05:35;;;;;;;4.37;3.93;;;;;;;16.78;82.41;98516.53;7269226;40;20239;31
2023/08/30 00:11:11;;;;;;;4.40;4.00;;;;;;;16.75;82.64;98525.16;7278682;40;20258;31
2023/08/30 00:16:46;;;;;;;4.15;3.75;;;;;;;16.78;81.72;98514.66;7262824;40;20258;31
2023/08/30 00:22:22;;;;;;;5.40;3.90;;;;;;;16.86;82.25;98503.47;7266658;40;20361;31
2023/08/30 00:27:57;;;;;;;5.60;4.30;;;;;;;16.85;82.26;98501.00;7285668;39;20244;31
2023/08/30 00:33:30;;;;;;;5.10;4.40;;;;;;;16.77;82.61;98504.81;7254421;40;20274;31
2023/08/30 00:39:08;;;;;;;5.00;4.50;;;;;;;16.84;82.73;98513.78;7217827;40;20579;31
2023/08/30 00:44:28;;;;;;;4.87;4.37;;;;;;;16.84;82.88;98502.91;7197021;40;20250;31
2023/08/30 00:50:02;;;;;;;5.30;4.50;;;;;;;16.85;83.04;98509.97;7232168;40;20248;31
2023/08/30 00:55:37;;;;;;;4.85;4.45;;;;;;;16.91;83.22;98502.81;7266297;40;20269;31
2023/08/30 01:01:14;;;;;;;4.82;4.43;;;;;;;16.93;82.81;98496.09;7240633;40;21147;31
2023/08/30 01:06:48;;;;;;;4.87;4.40;;;;;;;16.98;82.05;98495.44;7205114;40;20243;31
2023/08/30 01:12:23;;;;;;;5.30;4.50;;;;;;;17.01;81.79;98494.97;7197454;40;20264;31
2023/08/30 01:17:55;;;;;;;5.60;5.00;;;;;;;16.98;82.88;98488.06;7222797;40;20540;31
2023/08/30 01:23:35;;;;;;;6.43;5.83;;;;;;;16.98;82.65;98477.19;7228325;40;20255;31
2023/08/30 01:29:13;;;;;;;6.95;6.35;;;;;;;16.97;82.04;98475.53;7260915;39;20271;31
2023/08/30 01:34:48;;;;;;;6.70;6.00;;;;;;;17.05;81.88;98469.78;7257131;40;20792;31
2023/08/30 01:40:21;;;;;;;7.20;6.00;;;;;;;17.11;81.91;98470.78;7226161;40;20343;31
2023/08/30 01:45:59;;;;;;;6.63;6.10;;;;;;;16.97;82.37;98464.66;7264069;40;20842;31
2023/08/30 01:56:21;;;;;;;6.07;5.20;;;;;;;16.92;82.45;98469.09;7210775;39;21134;31
2023/08/30 02:07:55;;;;;;;5.80;5.20;;;;;;;17.01;82.57;98474.03;7362103;39;20330;31
2023/08/30 02:13:30;;;;;;;6.20;5.60;;;;;;;16.92;82.85;98472.66;7338678;39;20246;31
2023/08/30 02:19:05;;;;;;;5.90;5.30;;;;;;;16.82;82.18;98475.06;7340801;39;20613;31
2023/08/30 02:24:39;;;;;;;8.70;5.40;;;;;;;16.88;82.08;98471.44;7306204;39;20258;31
2023/08/30 02:30:11;;;;;;;6.40;5.80;;;;;;;16.91;81.94;98460.09;7054082;40;20260;31
2023/08/30 02:35:41;;;;;;;;;;;;;;;;;;;;;
2023/08/30 02:41:09;;;;;;;5.93;5.20;;;;;;;16.72;82.90;98450.22;7207066;40;20524;31
2023/08/30 02:46:28;;;;;;;5.80;5.20;;;;;;;16.72;82.63;98458.38;7247662;40;20271;31
2023/08/30 02:52:04;;;;;;;5.10;4.70;;;;;;;16.73;82.21;98457.34;7292333;39;20265;31
2023/08/30 02:57:40;;;;;;;5.50;5.00;;;;;;;16.65;83.29;98463.06;7254704;40;20359;31
2023/08/30 03:03:15;;;;;;;5.63;5.00;;;;;;;16.71;81.99;98461.34;7253615;40;20341;31
2023/08/30 03:13:58;;;;;;;5.37;4.83;;;;;;;16.63;83.00;98451.56;7282370;39;20832;31
2023/08/30 03:19:18;;;;;;;4.70;4.25;;;;;;;16.65;82.66;98461.19;7272936;40;20246;31
2023/08/30 03:24:54;;;;;;;5.87;4.43;;;;;;;16.65;82.60;98460.34;7212158;40;20274;31
2023/08/30 03:30:31;;;;;;;4.77;4.30;;;;;;;16.68;82.93;98458.00;7236087;40;20290;31
2023/08/30 03:36:07;;;;;;;5.07;4.43;;;;;;;16.67;82.10;98458.25;7276090;39;20260;31
2023/08/30 03:41:42;;;;;;;4.40;4.00;;;;;;;16.59;82.25;98466.66;7268727;39;20249;31
2023/08/30 03:47:16;;;;;;;4.70;4.30;;;;;;;16.52;82.39;98466.72;7269607;40;20290;31
2023/08/30 03:52:37;;;;;;;4.70;3.70;;;;;;;16.57;82.13;98463.31;7207019;40;20308;31
2023/08/30 03:57:57;;;;;;;4.40;4.00;;;;;;;16.63;81.95;98462.44;7267144;39;20265;31
2023/08/30 04:03:38;;;;;;;4.17;3.77;;;;;;;16.64;82.31;98464.97;7276488;39;20661;31
2023/08/30 04:08:55;;;;;;;5.15;4.30;;;;;;;16.63;81.83;98467.88;7272404;39;20315;31
2023/08/30 04:14:16;;;;;;;4.30;3.80;;;;;;;16.64;80.96;98464.13;7312224;39;20304;31
2023/08/30 04:19:47;;;;;;;4.40;4.00;;;;;;;16.60;80.91;98460.19;7347802;39;20343;31
2023/08/30 04:25:09;;;;;;;4.60;4.20;;;;;;;16.58;81.40;98460.44;7337602;39;20560;31
2023/08/30 04:30:43;;;;;;;5.30;4.80;;;;;;;16.52;81.05;98455.84;7351795;39;20252;31
2023/08/30 04:36:17;;;;;;;5.70;4.30;;;;;;;16.46;82.13;98453.16;7307187;39;20250;31
2023/08/30 04:41:38;;;;;;;5.20;4.70;;;;;;;16.48;81.17;98472.81;7274911;40;20257;31
2023/08/30 04:46:57;;;;;;;5.84;5.06;;;;;;;16.43;81.68;98467.22;7259417;40;20416;31
2023/08/30 04:52:33;;;;;;;5.70;5.20;;;;;;;16.41;81.63;98469.34;7258149;39;20308;31
2023/08/30 04:58:09;;;;;;;6.25;5.50;;;;;;;16.37;82.37;98463.47;7206070;40;20348;31
2023/08/30 05:03:29;;;;;;;6.80;6.20;;;;;;;16.33;82.12;98458.72;7189308;40;20343;31
2023/08/30 05:09:06;;;;;;;8.57;6.23;;;;;;;16.20;81.14;98467.81;7256590;40;20280;31
2023/08/30 05:14:42;;;;;;;7.60;6.40;;;;;;;16.16;81.49;98472.84;7244149;40;21095;31
2023/08/30 05:20:04;;;;;;;7.30;6.60;;;;;;;16.17;81.46;98465.53;7187805;40;20381;31
2023/08/30 05:25:43;;;;;;;8.53;5.93;;;;;;;16.14;82.12;98471.41;7196307;40;20258;31
2023/08/30 05:31:04;;;;;;;6.65;6.05;;;;;;;16.19;81.80;98477.03;7275512;40;20242;31
2023/08/30 05:36:25;;;;;;;8.65;5.60;;;;;;;16.20;82.11;98474.06;7306848;39;20346;31
2023/08/30 05:42:02;;;;;;;5.70;5.17;;;;;;;16.17;81.87;98474.53;7307182;39;20336;31
2023/08/30 05:47:19;;;;;;;6.40;5.75;;;;;;;16.18;82.07;98473.47;7309801;39;20251;31
2023/08/30 05:52:44;;;;;;;6.80;6.10;;;;;;;16.17;81.31;98468.25;7334203;39;20420;31
2023/08/30 05:58:19;;;;;;;6.30;5.70;;;;;;;16.21;81.46;98464.88;7314301;39;20257;31
2023/08/30 06:03:38;;;;;;;6.80;6.10;;;;;;;16.29;81.52;98449.31;7316460;39;20252;31
2023/08/30 06:09:00;;;;;;;6.80;6.20;;;;;;;16.24;82.33;98469.03;7330974;39;20256;31
2023/08/30 06:14:36;;;;;;;8.35;6.70;;;;;;;16.24;81.97;98463.59;7298583;39;20263;31
2023/08/30 06:19:57;;;;;;;7.07;6.20;;;;;;;16.38;82.29;98464.31;7270892;40;20435;31
2023/08/30 06:25:18;;;;;;;6.90;6.20;;;;;;;16.53;82.19;98459.38;7258405;40;20673;31
2023/08/30 06:30:54;;;;;;;6.60;5.90;;;;;;;16.65;81.69;98466.63;7248411;40;20269;31
2023/08/30 06:36:16;;;;;;;6.83;5.93;;;;;;;16.66;81.87;98468.31;7293842;39;20350;31
2023/08/30 06:41:50;;;;;;;7.60;6.40;;;;;;;16.64;82.04;98464.97;7305351;39;20240;31
2023/08/30 06:47:27;;;;;;;6.87;6.17;;;;;;;16.80;81.28;98465.47;7279663;39;20253;31
2023/08/30 06:53:03;;;;;;;6.55;5.95;;;;;;;16.79;80.94;98467.34;7194734;40;20283;31
2023/08/30 06:58:23;;;;;;;6.77;6.17;;;;;;;16.80;81.13;98458.12;7249679;40;20339;31
2023/08/30 07:04:01;;;;;;;6.50;5.90;;;;;;;16.83;81.22;98460.38;7291030;39;20790;31
2023/08/30 07:09:37;;;;;;;6.30;5.77;;;;;;;16.84;81.69;98467.50;7270409;40;20933;31
2023/08/30 07:14:57;;;;;;;6.23;5.40;;;;;;;16.96;81.26;98468.41;7231447;40;20246;31
2023/08/30 07:20:34;;;;;;;5.27;4.87;;;;;;;17.11;81.41;98452.53;7215538;40;20276;31
2023/08/30 07:25:54;;;;;;;5.80;5.30;;;;;;;17.18;80.41;98444.31;7274154;39;20780;31
2023/08/30 07:31:18;;;;;;;6.37;5.77;;;;;;;17.29;81.29;98440.00;7329421;39;20286;31
2023/08/30 07:41:56;;;;;;;6.30;5.80;;;;;;;17.34;81.78;98438.22;7370041;39;20286;31
2023/08/30 07:52:35;;;;;;;6.43;5.83;;;;;;;17.59;81.08;98459.97;7318696;39;20256;31
2023/08/30 07:58:11;;;;;;;6.00;5.50;;;;;;;17.81;80.38;98458.41;7317397;39;20304;31
2023/08/30 08:03:31;;;;;;;7.60;4.80;;;;;;;17.88;80.12;98464.59;7280448;39;20295;31
2023/08/30 08:14:12;;;;;;;5.35;4.85;;;;;;;17.96;78.35;98456.09;7337179;39;21180;31
2023/08/30 08:24:47;;;;;;;6.50;3.40;;;;;;;18.22;77.00;98463.03;7277497;40;20518;31
2023/08/30 08:30:27;;;;;;;3.80;3.43;;;;;;;18.20;76.79;98464.34;7244429;39;20382;31
2023/08/30 08:36:03;;;;;;;3.83;3.40;;;;;;;18.18;75.89;98466.47;7276695;39;20326;31
2023/08/30 08:41:39;;;;;;;3.80;3.40;;;;;;;18.25;76.51;98469.94;7237350;40;20890;31
2023/08/30 08:47:15;;;;;;;3.50;3.03;;;;;;;18.37;75.16;98470.78;7251331;40;20245;31
2023/08/30 08:52:35;;;;;;;4.17;3.20;;;;;;;18.44;75.51;98466.03;7227542;40;20262;31
2023/08/30 08:58:14;;;;;;;3.80;3.40;;;;;;;18.56;74.62;98469.66;7239480;40;20268;31
2023/08/30 09:08:55;;;;;;;3.17;2.77;;;;;;;19.16;72.68;98463.97;7310979;39;20555;31
2023/08/30 09:14:30;;;;;;;2.85;2.55;;;;;;;19.13;73.24;98465.25;7289184;39;20255;31
2023/08/30 09:19:50;;;;;;;2.95;2.40;;;;;;;18.98;72.56;98464.09;7301045;39;20549;31
2023/08/30 09:25:26;;;;;;;2.50;2.30;;;;;;;19.00;71.19;98470.16;7342577;39;20278;31
2023/08/30 09:31:04;;;;;;;2.53;2.33;;;;;;;19.24;71.62;98471.78;7031926;40;20246;31
2023/08/30 09:36:39;;;;;;;2.50;2.30;;;;;;;19.59;70.37;98460.81;7162629;40;20734;31
2023/08/30 09:42:00;;;;;;;3.45;2.70;;;;;;;19.86;69.18;98463.81;7196213;40;20246;31
2023/08/30 09:47:36;;;;;;;3.40;2.50;;;;;;;19.97;69.04;98461.00;7214445;40;20265;31
2023/08/30 09:53:09;;;;;;;5.00;2.80;;;;;;;20.19;66.60;98452.91;7228691;40;20233;31
2023/08/30 09:58:44;;;;;;;5.10;2.30;;;;;;;20.23;67.11;98443.97;7221394;40;20467;31
2023/08/30 10:04:18;;;;;;;2.47;2.20;;;;;;;20.32;66.82;98440.84;7287915;39;20253;31
2023/08/30 10:09:54;;;;;;;2.75;2.50;;;;;;;20.28;64.94;98443.22;7281181;39;20671;31
2023/08/30 10:20:35;;;;;;;3.45;2.30;;;;;;;20.47;65.02;98420.06;7314654;39;21267;31
2023/08/30 10:31:14;;;;;;;2.90;2.17;;;;;;;20.86;62.85;98418.19;7328215;39;21157;31
2023/08/30 10:36:50;;;;;;;2.47;2.10;;;;;;;21.08;63.10;98407.25;7278778;40;20245;31
2023/08/30 10:42:28;;;;;;;4.50;2.04;;;;;;;21.14;61.30;98395.31;7201023;40;20268;31
2023/08/30 10:48:04;;;;;;;2.07;1.87;;;;;;;21.43;60.20;98384.97;7178880;40;20239;31
2023/08/30 10:53:46;;;;;;;3.03;1.80;;;;;;;21.58;59.56;98390.66;7281101;39;21144;31
2023/08/30 10:59:21;;;;;;;1.90;1.77;;;;;;;21.47;59.37;98373.25;7290299;39;20256;31
2023/08/30 11:05:14;;;;;;;2.83;1.97;;;;;;;21.67;58.86;98371.81;7225275;40;20375;31
2023/08/30 11:15:55;;;;;;;1.92;1.80;;;;;;;22.05;54.76;98363.44;7285355;39;21260;31
2023/08/30 11:26:19;;;;;;;3.05;1.90;;;;;;;22.03;53.18;98355.44;7291384;39;20539;31
2023/08/30 11:36:55;;;;;;;2.97;1.70;;;;;;;21.55;55.68;98350.84;7318033;39;21193;31
2023/08/30 11:42:14;;;;;;;2.58;1.70;;;;;;;21.45;56.77;98352.66;7345094;39;20243;31
2023/08/30 11:47:57;;;;;;;2.37;1.92;;;;;;;21.43;57.06;98349.31;7289782;39;20256;31
2023/08/30 11:58:55;;;;;;;1.80;1.62;;;;;;;21.83;55.17;98337.94;7320636;39;20401;31
2023/08/30 12:04:31;;;;;;;2.40;2.00;;;;;;;21.98;54.25;98329.91;7286477;39;20268;31
2023/08/30 12:15:12;;;;;;;3.00;2.40;;;;;;;22.39;50.07;98331.03;7217774;40;20273;31
2023/08/30 12:25:39;;;;;;;3.20;1.80;;;;;;;22.60;52.50;98338.31;7257421;40;21151;31
2023/08/30 12:31:20;;;;;;;2.78;1.77;;;;;;;22.72;52.54;98325.25;7280538;40;20482;31
2023/08/30 12:36:53;;;;;;;2.58;1.67;;;;;;;23.05;51.52;98317.69;7304744;39;20237;31
2023/08/30 12:42:27;;;;;;;3.05;1.70;;;;;;;23.32;52.25;98316.44;7298803;40;20347;31
2023/08/30 12:48:04;;;;;;;1.87;1.73;;;;;;;23.52;51.03;98312.12;7249546;40;20249;31
2023/08/30 12:53:24;;;;;;;3.00;1.90;;;;;;;23.38;49.06;98309.03;7221567;40;20308;31
2023/08/30 12:58:45;;;;;;;2.37;1.80;;;;;;;23.63;49.12;98313.78;7226430;40;20257;31
2023/08/30 13:04:21;;;;;;;2.90;1.83;;;;;;;23.70;50.35;98319.84;7226213;40;20242;31
2023/08/30 13:09:57;;;;;;;2.80;1.80;;;;;;;23.90;48.93;98308.87;7225864;40;20249;31
2023/08/30 13:15:36;;;;;;;2.66;1.90;;;;;;;23.87;46.46;98303.09;7223714;40;20268;31
2023/08/30 13:21:11;;;;;;;2.85;1.80;;;;;;;23.67;43.83;98292.88;7259048;40;20874;31
2023/08/30 13:26:32;;;;;;;3.80;1.90;;;;;;;23.39;45.10;98304.34;7322477;39;20263;31
2023/08/30 13:37:13;;;;;;;4.10;2.20;;;;;;;23.11;47.92;98292.72;7309036;39;20276;31
2023/08/30 13:47:37;;;;;;;2.85;1.95;;;;;;;22.69;46.89;98283.69;7276537;40;21142;31
2023/08/30 13:58:19;;;;;;;3.15;1.95;;;;;;;23.02;46.35;98294.34;7358282;39;20376;31
2023/08/30 14:03:36;;;;;;;2.60;2.00;;;;;;;22.87;47.33;98303.31;7343152;39;20469;31
2023/08/30 14:09:13;;;;;;;3.34;2.20;;;;;;;23.04;47.46;98297.62;7317317;39;20243;31
2023/08/30 14:14:49;;;;;;;2.70;2.05;;;;;;;23.15;47.41;98287.50;7278512;40;20256;31
2023/08/30 14:20:10;;;;;;;3.53;2.10;;;;;;;23.29;47.42;98300.47;7307440;39;20374;31
2023/08/30 14:25:46;;;;;;;3.47;2.15;;;;;;;23.19;47.98;98303.19;7302032;40;20244;31
2023/08/30 14:31:23;;;;;;;5.37;2.37;;;;;;;23.03;47.83;98301.50;7321608;39;20240;31
2023/08/30 14:36:43;;;;;;;2.90;1.95;;;;;;;23.17;46.13;98288.88;7281122;40;20275;31
2023/08/30 14:42:04;;;;;;;2.45;1.95;;;;;;;23.01;47.17;98298.16;7287459;39;20248;31
2023/08/30 14:47:47;;;;;;;3.85;2.20;;;;;;;23.07;48.17;98299.84;7357063;40;20283;31
2023/08/30 14:53:22;;;;;;;3.17;2.20;;;;;;;23.23;49.04;98287.81;7304660;39;20314;31
2023/08/30 15:04:02;;;;;;;3.00;2.08;;;;;;;23.28;48.26;98295.25;7297451;40;20284;31
2023/08/30 15:09:22;;;;;;;3.10;2.30;;;;;;;23.05;48.62;98301.19;7313549;39;20588;31
2023/08/30 15:14:52;;;;;;;3.03;2.20;;;;;;;23.20;48.48;98293.84;7335271;39;20235;31
2023/08/30 15:20:28;;;;;;;2.50;2.30;;;;;;;23.17;48.96;98282.53;7338542;39;20655;31
2023/08/30 15:26:00;;;;;;;6.60;2.30;;;;;;;23.08;48.92;98279.50;7294276;39;20457;31
2023/08/30 15:31:36;;;;;;;3.05;2.42;;;;;;;23.06;48.96;98278.13;7304308;39;20257;31
2023/08/30 15:37:13;;;;;;;3.30;2.35;;;;;;;23.15;48.98;98274.59;7300778;39;20679;31
2023/08/30 15:42:47;;;;;;;3.10;2.47;;;;;;;23.10;47.96;98277.31;7294558;39;20566;31
2023/08/30 15:48:07;;;;;;;3.34;2.60;;;;;;;22.96;47.14;98284.41;7274523;40;20268;31
2023/08/30 15:53:43;;;;;;;3.35;2.60;;;;;;;22.65;48.11;98282.56;7257264;40;20335;31
2023/08/30 15:59:19;;;;;;;4.60;2.84;;;;;;;22.70;48.04;98288.13;7267790;40;20257;31
2023/08/30 16:04:40;;;;;;;3.25;2.80;;;;;;;22.68;47.72;98288.38;7253981;40;20283;31
2023/08/30 16:10:17;;;;;;;3.97;2.72;;;;;;;22.42;48.78;98281.09;7249056;40;20241;31
2023/08/30 16:15:52;;;;;;;4.16;2.74;;;;;;;22.44;49.69;98279.72;7275862;40;20585;31
2023/08/30 16:26:32;;;;;;;4.10;3.10;;;;;;;22.35;50.30;98272.25;7281313;40;21071;31
2023/08/30 16:37:11;;;;;;;4.10;2.70;;;;;;;22.24;51.14;98267.78;7378309;39;21228;31
2023/08/30 16:42:50;;;;;;;3.37;2.72;;;;;;;22.05;51.80;98270.13;7339294;39;20284;31
2023/08/30 16:53:29;;;;;;;3.30;2.40;;;;;;;22.02;51.58;98273.41;7297736;39;21085;31
2023/08/30 17:04:12;;;;;;;3.25;2.80;;;;;;;21.84;52.45;98276.50;7301798;39;20370;31
2023/08/30 17:09:47;;;;;;;4.56;2.70;;;;;;;21.57;52.32;98282.03;7321262;39;20592;31
2023/08/30 17:15:23;;;;;;;4.57;2.58;;;;;;;21.37;52.82;98295.53;7071107;40;20249;31
2023/08/30 17:21:00;;;;;;;2.83;2.30;;;;;;;21.19;53.28;98295.88;7242598;40;21117;31
2023/08/30 17:26:21;;;;;;;5.03;2.70;;;;;;;21.22;54.60;98284.41;7187590;40;20418;31
2023/08/30 17:31:40;;;;;;;3.62;2.50;;;;;;;21.20;53.87;98303.81;7210330;40;20250;31
2023/08/30 17:37:18;;;;;;;3.20;2.30;;;;;;;20.97;55.33;98285.75;7248561;40;20268;31
2023/08/30 17:42:39;;;;;;;3.33;2.33;;;;;;;20.99;56.49;98300.00;7281882;39;20255;31
2023/08/30 17:48:11;;;;;;;4.20;2.40;;;;;;;20.84;57.11;98312.69;7278199;40;20725;31
2023/08/30 17:58:51;;;;;;;4.60;2.05;;;;;;;20.57;62.08;98370.94;7309168;39;21291;31
2023/08/30 18:04:26;;;;;;;2.60;1.95;;;;;;;20.31;63.73;98379.00;7236313;39;20811;31
2023/08/30 18:09:47;;;;;;;2.85;1.65;;;;;;;19.91;65.70;98390.88;7233736;40;20289;31
2023/08/30 18:15:23;;;;;;;2.72;1.73;;;;;;;19.55;66.85;98383.91;7183623;40;20246;31
2023/08/30 18:20:59;;;;;;;3.20;1.80;;;;;;;19.47;68.29;98395.25;7240204;40;20377;31
2023/08/30 18:26:19;;;;;;;2.28;1.70;;;;;;;19.43;68.69;98407.72;7200618;40;20706;31
2023/08/30 18:31:56;;;;;;;2.10;1.60;;;;;;;19.06;69.00;98403.62;7249100;40;20252;31
2023/08/30 18:37:33;;;;;;;2.35;1.65;;;;;;;18.94;69.36;98400.09;7307157;39;20376;31
2023/08/30 18:42:54;;;;;;;1.62;1.25;;;;;;;18.90;68.99;98388.81;7252406;39;20367;31
2023/08/30 18:48:30;;;;;;;1.50;1.40;;;;;;;18.75;70.26;98386.56;7264316;40;20353;31
2023/08/30 18:54:06;;;;;;;1.50;1.30;;;;;;;18.69;70.62;98395.72;7276967;39;20268;31
2023/08/30 18:59:27;;;;;;;1.97;1.40;;;;;;;18.74;70.63;98406.75;7275380;40;20359;31
2023/08/30 19:05:03;;;;;;;1.50;1.30;;;;;;;18.75;71.82;98410.31;7300148;39;20405;31
2023/08/30 19:10:24;;;;;;;1.83;1.40;;;;;;;18.80;71.78;98427.66;7248316;40;20904;31
2023/08/30 19:15:58;;;;;;;2.55;1.50;;;;;;;18.65;72.23;98426.47;7273528;39;20755;31
2023/08/30 19:21:36;;;;;;;2.07;1.50;;;;;;;18.54;72.32;98428.12;7266941;40;20250;31
2023/08/30 19:27:09;;;;;;;1.80;1.40;;;;;;;18.52;73.18;98430.22;7282959;39;20264;31
2023/08/30 19:32:30;;;;;;;1.70;1.32;;;;;;;18.59;72.82;98435.59;7268138;40;20260;31
2023/08/30 19:38:05;;;;;;;2.25;1.40;;;;;;;18.56;73.36;98436.09;7279288;40;20308;31
2023/08/30 19:43:26;;;;;;;2.40;1.70;;;;;;;18.59;72.83;98450.09;7264124;40;20686;31
2023/08/30 19:48:47;;;;;;;2.50;1.80;;;;;;;18.54;74.18;98454.59;7293976;39;20403;31
2023/08/30 19:54:23;;;;;;;2.33;1.40;;;;;;;18.62;73.00;98451.50;7311809;39;21001;31
2023/08/30 19:59:58;;;;;;;3.92;1.50;;;;;;;18.69;73.83;98453.03;7328043;39;20343;31
2023/08/30 20:05:20;;;;;;;2.20;1.50;;;;;;;18.76;73.26;98472.03;7288874;40;20241;31
2023/08/30 20:10:57;;;;;;;2.50;1.40;;;;;;;18.65;74.49;98487.34;7258402;40;20424;31
2023/08/30 20:16:32;;;;;;;2.23;1.60;;;;;;;18.41;73.97;98471.97;7288209;39;20330;31
2023/08/30 20:22:10;;;;;;;2.35;1.50;;;;;;;18.24;74.58;98473.72;7268684;39;20228;31
2023/08/30 20:27:48;;;;;;;3.05;1.75;;;;;;;18.15;74.06;98484.13;7229773;40;20378;31
2023/08/30 20:33:09;;;;;;;3.80;1.70;;;;;;;18.22;73.68;98486.75;7258600;40;20259;31
2023/08/30 20:38:29;;;;;;;3.28;1.90;;;;;;;18.21;73.50;98496.81;7248820;40;20365;31
2023/08/30 20:44:08;;;;;;;2.30;1.70;;;;;;;18.21;73.56;98494.09;7284268;39;20359;31
2023/08/30 20:49:43;;;;;;;3.70;1.60;;;;;;;18.17;74.15;98512.00;7253667;40;20260;31
2023/08/30 20:55:04;;;;;;;3.97;1.60;;;;;;;18.18;73.67;98518.28;7280420;40;20546;31
2023/08/30 21:00:38;;;;;;;3.40;1.50;;;;;;;18.08;74.18;98510.66;7208729;40;20689;31
2023/08/30 21:06:13;;;;;;;2.23;1.70;;;;;;;17.92;73.78;98517.59;7309603;39;20299;31
2023/08/30 21:11:35;;;;;;;3.00;1.80;;;;;;;17.94;73.61;98520.09;7300655;40;20321;31
2023/08/30 21:17:15;;;;;;;2.87;1.63;;;;;;;17.97;73.93;98515.03;7300162;40;20311;31
2023/08/30 21:23:03;;;;;;;;;;;;;;;;;;;;;
2023/08/30 21:28:31;;;;;;;3.23;1.60;;;;;;;18.01;72.93;98532.59;7256923;40;20261;31
2023/08/30 21:39:13;;;;;;;2.80;1.90;;;;;;;17.83;74.00;98529.87;7323250;39;20269;31
2023/08/30 21:44:33;;;;;;;3.10;1.93;;;;;;;17.84;73.09;98539.75;7342515;39;20332;31
2023/08/30 21:50:08;;;;;;;5.05;2.00;;;;;;;17.75;73.51;98526.66;7292564;39;20672;31
2023/08/30 21:55:43;;;;;;;2.43;1.80;;;;;;;17.56;73.89;98537.53;7278379;39;21168;31
2023/08/30 22:01:19;;;;;;;2.90;1.80;;;;;;;17.46;74.18;98534.47;7247398;40;20256;31
2023/08/30 22:06:40;;;;;;;3.17;2.00;;;;;;;17.41;74.20;98537.09;7250795;40;20261;31
2023/08/30 22:12:16;;;;;;;4.40;2.20;;;;;;;17.46;75.30;98574.56;7282144;40;20299;31
2023/08/30 22:17:36;;;;;;;6.50;2.00;;;;;;;17.49;74.23;98571.38;7250033;40;20263;31
2023/08/30 22:23:11;;;;;;;3.50;1.90;;;;;;;17.45;74.21;98572.88;7325881;39;20412;31
2023/08/30 22:28:47;;;;;;;2.10;1.90;;;;;;;17.32;75.32;98582.03;7278963;40;20255;31
2023/08/30 22:34:22;;;;;;;2.60;2.07;;;;;;;17.25;76.07;98580.41;7280441;40;20276;31
2023/08/30 22:39:44;;;;;;;3.43;1.90;;;;;;;17.19;75.98;98586.75;7289325;40;20267;31
2023/08/30 22:45:19;;;;;;;4.10;2.13;;;;;;;17.20;75.56;98583.00;7305862;39;20248;31
2023/08/30 22:50:55;;;;;;;2.53;2.13;;;;;;;17.22;75.03;98591.75;7242008;40;20323;31
2023/08/30 22:56:31;;;;;;;3.90;2.30;;;;;;;17.19;74.56;98584.88;7237933;40;20272;31
2023/08/30 23:02:07;;;;;;;4.40;2.30;;;;;;;17.08;74.86;98580.97;7247171;40;20277;31
2023/08/30 23:07:44;;;;;;;4.70;2.50;;;;;;;16.96;75.09;98585.50;7279492;40;20237;31
2023/08/30 23:13:05;;;;;;;2.80;2.10;;;;;;;16.91;74.60;98596.22;7239761;40;20407;31
2023/08/30 23:18:41;;;;;;;3.40;2.13;;;;;;;16.82;75.25;98592.09;7293510;39;20695;31
2023/08/30 23:24:17;;;;;;;4.50;2.30;;;;;;;16.66;75.92;98603.53;7254574;40;20242;31
2023/08/30 23:29:37;;;;;;;3.12;2.20;;;;;;;16.70;76.71;98598.47;7287778;39;20341;31
2023/08/30 23:35:14;;;;;;;3.70;2.35;;;;;;;16.68;77.49;98601.41;7339247;39;21092;31
2023/08/30 23:40:51;;;;;;;3.70;2.30;;;;;;;16.56;78.32;98601.25;7276810;40;20273;31
2023/08/30 23:46:26;;;;;;;2.90;2.60;;;;;;;16.75;77.15;98596.78;7287480;39;20353;31
2023/08/30 23:52:01;;;;;;;3.93;2.87;;;;;;;16.79;77.63;98599.88;7230843;40;20242;31
2023/08/30 23:57:33;;;;;;;3.27;2.67;;;;;;;16.76;77.76;98598.41;7063561;40;20243;31
